チューリッヒ の空港の天気 - METARとTAF

チューリヒ国際空港 ( LSZH / ZRH ) - スイス チューリッヒ
飛行場実況気象(Metar)
観測時間10/18 10:50 CEST (10/18 08:50 UTC)
風向・風速不定 2m/s
視程10km以上
天気現象
少しの雲 雲底高度 370m
全天の4割程度の雲 雲底高度 1830m
全天の8割程度の雲 雲底高度 2440m
気温13℃
湿度88%
気圧1015hPa
METARLSZH 180850Z VRB03KT 9999 FEW012 SCT060 BKN080 13/11 Q1015 NOSIG
過去の天気等 Google飛行場航空写真 Wunderground天気予報

過去48時間のMETAR

飛行場予報(TAF)
発表時間: 10/18 10:25 CEST (10/18 08:25 UTC)
予報対象時間: 18日11時 CEST ~ 19日17時 CEST
風向・風速南東 4m/s
視程10km以上
少しの雲 雲底高度 1830m
全天の8割程度の雲 雲底高度 2740m
18日11時 CEST ~ 18日15時 CEST に一時的に
視程10km以上
なし
18日15時 CEST ~ 18日18時 CEST に 確率 40% で一時的に
風向・風速西北西 5m/s
18日18時 CEST ~ 18日24時 CEST に一時的に
天気現象しゅう雨
19日9時 CEST ~ 19日12時 CEST に 確率 40% で一時的に
視程4500m
天気現象
TAF LSZH 180825Z 1809/1915 14007KT 9999 FEW060 BKN090 TX17/1814Z TN10/1905Z TX15/1915Z
TEMPO 1809/1813 CAVOK
PROB40 TEMPO 1813/1816 30010KT
TEMPO 1816/1822 SHRA
PROB40 TEMPO 1907/1910 4500 RA